sensor_id;sensor_type;location;lat;lon;timestamp;P1;durP1;ratioP1;P2;durP2;ratioP2
6269;SDS011;3168;51.684;6.954;2022-09-30T00:00:21;4.40;;;3.23;;
6269;SDS011;3168;51.684;6.954;2022-09-30T00:02:47;2.33;;;2.23;;
6269;SDS011;3168;51.684;6.954;2022-09-30T00:05:13;3.53;;;3.33;;
6269;SDS011;3168;51.684;6.954;2022-09-30T00:07:39;2.17;;;2.13;;
6269;SDS011;3168;51.684;6.954;2022-09-30T00:10:05;2.70;;;2.50;;
6269;SDS011;3168;51.684;6.954;2022-09-30T00:12:31;2.10;;;2.10;;
6269;SDS011;3168;51.684;6.954;2022-09-30T00:14:56;2.90;;;2.80;;
6269;SDS011;3168;51.684;6.954;2022-09-30T00:17:22;3.87;;;3.50;;
6269;SDS011;3168;51.684;6.954;2022-09-30T00:19:48;4.50;;;2.77;;
6269;SDS011;3168;51.684;6.954;2022-09-30T00:22:14;3.80;;;2.43;;
6269;SDS011;3168;51.684;6.954;2022-09-30T00:24:40;2.33;;;2.23;;
6269;SDS011;3168;51.684;6.954;2022-09-30T00:27:06;11.27;;;3.43;;
6269;SDS011;3168;51.684;6.954;2022-09-30T00:29:32;3.65;;;3.12;;
6269;SDS011;3168;51.684;6.954;2022-09-30T00:31:58;3.20;;;3.00;;
6269;SDS011;3168;51.684;6.954;2022-09-30T00:34:23;3.00;;;2.80;;
6269;SDS011;3168;51.684;6.954;2022-09-30T00:36:50;4.07;;;3.80;;
6269;SDS011;3168;51.684;6.954;2022-09-30T00:39:17;3.13;;;3.03;;
6269;SDS011;3168;51.684;6.954;2022-09-30T00:41:43;3.73;;;3.53;;
6269;SDS011;3168;51.684;6.954;2022-09-30T00:46:46;3.43;;;3.23;;
6269;SDS011;3168;51.684;6.954;2022-09-30T00:49:13;3.27;;;3.07;;
6269;SDS011;3168;51.684;6.954;2022-09-30T00:51:40;3.20;;;3.00;;
6269;SDS011;3168;51.684;6.954;2022-09-30T00:54:06;4.73;;;2.90;;
6269;SDS011;3168;51.684;6.954;2022-09-30T00:56:32;3.30;;;3.10;;
6269;SDS011;3168;51.684;6.954;2022-09-30T00:59:05;2.50;;;2.30;;
6269;SDS011;3168;51.684;6.954;2022-09-30T01:01:30;2.30;;;2.20;;
6269;SDS011;3168;51.684;6.954;2022-09-30T01:03:58;2.23;;;2.13;;
6269;SDS011;3168;51.684;6.954;2022-09-30T01:06:22;1.77;;;1.70;;
6269;SDS011;3168;51.684;6.954;2022-09-30T01:08:48;2.50;;;2.40;;
6269;SDS011;3168;51.684;6.954;2022-09-30T01:11:13;1.90;;;1.80;;
6269;SDS011;3168;51.684;6.954;2022-09-30T01:13:40;2.80;;;2.70;;
6269;SDS011;3168;51.684;6.954;2022-09-30T01:16:10;2.67;;;2.57;;
6269;SDS011;3168;51.684;6.954;2022-09-30T01:21:26;2.77;;;2.67;;
6269;SDS011;3168;51.684;6.954;2022-09-30T01:23:55;2.93;;;2.83;;
6269;SDS011;3168;51.684;6.954;2022-09-30T01:29:48;3.20;;;3.10;;
6269;SDS011;3168;51.684;6.954;2022-09-30T01:32:02;3.47;;;3.22;;
6269;SDS011;3168;51.684;6.954;2022-09-30T01:34:52;3.33;;;3.03;;
6269;SDS011;3168;51.684;6.954;2022-09-30T01:37:36;2.03;;;2.03;;
6269;SDS011;3168;51.684;6.954;2022-09-30T01:40:02;2.60;;;2.50;;
6269;SDS011;3168;51.684;6.954;2022-09-30T01:42:35;2.90;;;2.77;;
6269;SDS011;3168;51.684;6.954;2022-09-30T01:45:05;2.40;;;2.30;;
6269;SDS011;3168;51.684;6.954;2022-09-30T01:47:33;3.43;;;2.40;;
6269;SDS011;3168;51.684;6.954;2022-09-30T01:50:00;2.27;;;2.17;;
6269;SDS011;3168;51.684;6.954;2022-09-30T01:52:28;2.40;;;2.30;;
6269;SDS011;3168;51.684;6.954;2022-09-30T01:54:52;1.80;;;1.80;;
6269;SDS011;3168;51.684;6.954;2022-09-30T01:57:22;2.73;;;2.53;;
6269;SDS011;3168;51.684;6.954;2022-09-30T01:59:49;1.67;;;1.67;;
6269;SDS011;3168;51.684;6.954;2022-09-30T02:02:31;2.90;;;2.80;;
6269;SDS011;3168;51.684;6.954;2022-09-30T02:04:57;3.00;;;2.90;;
6269;SDS011;3168;51.684;6.954;2022-09-30T02:07:23;3.07;;;2.97;;
6269;SDS011;3168;51.684;6.954;2022-09-30T02:09:50;1.90;;;1.90;;
6269;SDS011;3168;51.684;6.954;2022-09-30T02:12:19;3.03;;;2.93;;
6269;SDS011;3168;51.684;6.954;2022-09-30T02:14:47;3.23;;;2.23;;
6269;SDS011;3168;51.684;6.954;2022-09-30T02:17:18;2.57;;;2.40;;
6269;SDS011;3168;51.684;6.954;2022-09-30T02:19:43;2.17;;;2.17;;
6269;SDS011;3168;51.684;6.954;2022-09-30T02:22:11;4.63;;;2.10;;
6269;SDS011;3168;51.684;6.954;2022-09-30T02:24:39;2.20;;;2.10;;
6269;SDS011;3168;51.684;6.954;2022-09-30T02:27:05;2.63;;;2.53;;
6269;SDS011;3168;51.684;6.954;2022-09-30T02:29:31;1.87;;;1.77;;
6269;SDS011;3168;51.684;6.954;2022-09-30T02:31:59;1.50;;;1.50;;
6269;SDS011;3168;51.684;6.954;2022-09-30T02:34:27;2.65;;;2.55;;
6269;SDS011;3168;51.684;6.954;2022-09-30T02:37:00;1.90;;;1.80;;
6269;SDS011;3168;51.684;6.954;2022-09-30T02:39:27;2.17;;;2.10;;
6269;SDS011;3168;51.684;6.954;2022-09-30T02:41:53;2.73;;;2.53;;
6269;SDS011;3168;51.684;6.954;2022-09-30T02:44:17;1.90;;;1.90;;
6269;SDS011;3168;51.684;6.954;2022-09-30T02:46:49;2.70;;;2.60;;
6269;SDS011;3168;51.684;6.954;2022-09-30T02:51:54;2.27;;;2.07;;
6269;SDS011;3168;51.684;6.954;2022-09-30T02:54:21;3.03;;;2.83;;
6269;SDS011;3168;51.684;6.954;2022-09-30T02:56:52;2.60;;;2.50;;
6269;SDS011;3168;51.684;6.954;2022-09-30T02:59:18;1.93;;;1.90;;
6269;SDS011;3168;51.684;6.954;2022-09-30T03:01:44;1.90;;;1.87;;
6269;SDS011;3168;51.684;6.954;2022-09-30T03:04:11;2.50;;;2.40;;
6269;SDS011;3168;51.684;6.954;2022-09-30T03:06:36;2.00;;;1.93;;
6269;SDS011;3168;51.684;6.954;2022-09-30T03:09:02;2.30;;;2.20;;
6269;SDS011;3168;51.684;6.954;2022-09-30T03:11:29;2.43;;;2.33;;
6269;SDS011;3168;51.684;6.954;2022-09-30T03:14:33;3.13;;;1.87;;
6269;SDS011;3168;51.684;6.954;2022-09-30T03:18:06;1.53;;;1.53;;
6269;SDS011;3168;51.684;6.954;2022-09-30T03:19:52;2.03;;;1.93;;
6269;SDS011;3168;51.684;6.954;2022-09-30T03:25:21;1.90;;;1.90;;
6269;SDS011;3168;51.684;6.954;2022-09-30T03:28:24;2.63;;;2.53;;
6269;SDS011;3168;51.684;6.954;2022-09-30T03:30:36;2.37;;;2.27;;
6269;SDS011;3168;51.684;6.954;2022-09-30T03:33:05;2.40;;;2.30;;
6269;SDS011;3168;51.684;6.954;2022-09-30T03:36:12;2.53;;;2.43;;
6269;SDS011;3168;51.684;6.954;2022-09-30T03:38:34;2.33;;;2.23;;
6269;SDS011;3168;51.684;6.954;2022-09-30T03:43:54;2.33;;;2.23;;
6269;SDS011;3168;51.684;6.954;2022-09-30T03:46:26;1.80;;;1.80;;
6269;SDS011;3168;51.684;6.954;2022-09-30T03:48:53;3.03;;;2.93;;
6269;SDS011;3168;51.684;6.954;2022-09-30T03:51:17;2.00;;;1.90;;
6269;SDS011;3168;51.684;6.954;2022-09-30T03:53:43;2.10;;;2.00;;
6269;SDS011;3168;51.684;6.954;2022-09-30T03:56:09;2.17;;;2.03;;
6269;SDS011;3168;51.684;6.954;2022-09-30T03:58:35;1.80;;;1.80;;
6269;SDS011;3168;51.684;6.954;2022-09-30T04:01:00;3.23;;;2.10;;
6269;SDS011;3168;51.684;6.954;2022-09-30T04:03:26;2.50;;;2.40;;
6269;SDS011;3168;51.684;6.954;2022-09-30T04:05:52;2.27;;;2.17;;
6269;SDS011;3168;51.684;6.954;2022-09-30T04:08:18;2.40;;;2.30;;
6269;SDS011;3168;51.684;6.954;2022-09-30T04:10:44;2.83;;;2.37;;
6269;SDS011;3168;51.684;6.954;2022-09-30T04:13:09;2.57;;;2.37;;
6269;SDS011;3168;51.684;6.954;2022-09-30T04:15:35;1.93;;;1.83;;
6269;SDS011;3168;51.684;6.954;2022-09-30T04:18:02;3.07;;;2.00;;
6269;SDS011;3168;51.684;6.954;2022-09-30T04:20:28;1.90;;;1.90;;
6269;SDS011;3168;51.684;6.954;2022-09-30T04:22:55;3.00;;;2.80;;
6269;SDS011;3168;51.684;6.954;2022-09-30T04:25:19;2.30;;;2.10;;
6269;SDS011;3168;51.684;6.954;2022-09-30T04:27:45;2.03;;;1.93;;
6269;SDS011;3168;51.684;6.954;2022-09-30T04:30:11;3.07;;;2.97;;
6269;SDS011;3168;51.684;6.954;2022-09-30T04:32:37;2.43;;;2.43;;
6269;SDS011;3168;51.684;6.954;2022-09-30T04:35:03;1.97;;;1.90;;
6269;SDS011;3168;51.684;6.954;2022-09-30T04:37:29;2.78;;;2.67;;
6269;SDS011;3168;51.684;6.954;2022-09-30T04:39:54;1.67;;;1.67;;
6269;SDS011;3168;51.684;6.954;2022-09-30T04:42:20;2.20;;;2.20;;
6269;SDS011;3168;51.684;6.954;2022-09-30T04:44:46;2.07;;;1.97;;
6269;SDS011;3168;51.684;6.954;2022-09-30T04:47:12;2.47;;;2.37;;
6269;SDS011;3168;51.684;6.954;2022-09-30T04:49:38;2.97;;;2.77;;
6269;SDS011;3168;51.684;6.954;2022-09-30T04:52:04;2.50;;;2.40;;
6269;SDS011;3168;51.684;6.954;2022-09-30T04:54:30;3.27;;;3.07;;
6269;SDS011;3168;51.684;6.954;2022-09-30T04:56:55;2.70;;;2.53;;
6269;SDS011;3168;51.684;6.954;2022-09-30T04:59:21;2.33;;;2.13;;
6269;SDS011;3168;51.684;6.954;2022-09-30T05:01:47;2.40;;;2.20;;
6269;SDS011;3168;51.684;6.954;2022-09-30T05:04:13;2.30;;;2.20;;
6269;SDS011;3168;51.684;6.954;2022-09-30T05:06:39;3.37;;;3.17;;
6269;SDS011;3168;51.684;6.954;2022-09-30T05:09:05;3.53;;;2.20;;
6269;SDS011;3168;51.684;6.954;2022-09-30T05:11:31;2.60;;;2.50;;
6269;SDS011;3168;51.684;6.954;2022-09-30T05:13:56;7.40;;;6.80;;
6269;SDS011;3168;51.684;6.954;2022-09-30T05:16:22;3.50;;;2.33;;
6269;SDS011;3168;51.684;6.954;2022-09-30T05:18:48;2.60;;;2.47;;
6269;SDS011;3168;51.684;6.954;2022-09-30T05:21:15;2.47;;;2.27;;
6269;SDS011;3168;51.684;6.954;2022-09-30T05:23:40;3.07;;;2.97;;
6269;SDS011;3168;51.684;6.954;2022-09-30T05:26:06;2.50;;;2.50;;
6269;SDS011;3168;51.684;6.954;2022-09-30T05:28:32;3.30;;;3.10;;
6269;SDS011;3168;51.684;6.954;2022-09-30T05:31:00;2.30;;;2.20;;
6269;SDS011;3168;51.684;6.954;2022-09-30T05:33:25;2.60;;;2.07;;
6269;SDS011;3168;51.684;6.954;2022-09-30T05:35:51;3.90;;;2.53;;
6269;SDS011;3168;51.684;6.954;2022-09-30T05:38:16;2.25;;;2.15;;
6269;SDS011;3168;51.684;6.954;2022-09-30T05:40:42;3.93;;;2.53;;
6269;SDS011;3168;51.684;6.954;2022-09-30T05:43:08;3.40;;;3.20;;
6269;SDS011;3168;51.684;6.954;2022-09-30T05:45:34;3.23;;;3.10;;
6269;SDS011;3168;51.684;6.954;2022-09-30T05:48:00;2.70;;;2.60;;
6269;SDS011;3168;51.684;6.954;2022-09-30T05:50:25;3.20;;;3.00;;
6269;SDS011;3168;51.684;6.954;2022-09-30T05:52:51;21.30;;;3.17;;
6269;SDS011;3168;51.684;6.954;2022-09-30T05:55:18;3.30;;;3.20;;
6269;SDS011;3168;51.684;6.954;2022-09-30T05:57:43;2.93;;;1.77;;
6269;SDS011;3168;51.684;6.954;2022-09-30T06:00:09;3.13;;;2.70;;
6269;SDS011;3168;51.684;6.954;2022-09-30T06:02:36;2.50;;;2.40;;
6269;SDS011;3168;51.684;6.954;2022-09-30T06:05:04;8.90;;;2.30;;
6269;SDS011;3168;51.684;6.954;2022-09-30T06:07:31;3.47;;;3.27;;
6269;SDS011;3168;51.684;6.954;2022-09-30T06:09:56;2.70;;;2.60;;
6269;SDS011;3168;51.684;6.954;2022-09-30T06:12:22;2.80;;;2.70;;
6269;SDS011;3168;51.684;6.954;2022-09-30T06:14:48;1.90;;;1.80;;
6269;SDS011;3168;51.684;6.954;2022-09-30T06:17:13;2.83;;;2.70;;
6269;SDS011;3168;51.684;6.954;2022-09-30T06:19:39;3.30;;;3.17;;
6269;SDS011;3168;51.684;6.954;2022-09-30T06:22:05;2.83;;;2.67;;
6269;SDS011;3168;51.684;6.954;2022-09-30T06:24:31;3.00;;;2.77;;
6269;SDS011;3168;51.684;6.954;2022-09-30T06:26:57;5.53;;;4.20;;
6269;SDS011;3168;51.684;6.954;2022-09-30T06:29:23;2.60;;;2.47;;
6269;SDS011;3168;51.684;6.954;2022-09-30T06:31:48;1.47;;;1.47;;
6269;SDS011;3168;51.684;6.954;2022-09-30T06:34:14;2.70;;;2.50;;
6269;SDS011;3168;51.684;6.954;2022-09-30T06:36:40;4.20;;;3.27;;
6269;SDS011;3168;51.684;6.954;2022-09-30T06:39:06;3.53;;;3.40;;
6269;SDS011;3168;51.684;6.954;2022-09-30T06:41:33;4.87;;;4.33;;
6269;SDS011;3168;51.684;6.954;2022-09-30T06:43:59;4.73;;;4.50;;
6269;SDS011;3168;51.684;6.954;2022-09-30T06:46:25;5.87;;;5.30;;
6269;SDS011;3168;51.684;6.954;2022-09-30T06:48:53;4.93;;;4.60;;
6269;SDS011;3168;51.684;6.954;2022-09-30T06:51:19;4.60;;;3.50;;
6269;SDS011;3168;51.684;6.954;2022-09-30T06:53:48;5.70;;;5.20;;
6269;SDS011;3168;51.684;6.954;2022-09-30T06:56:11;12.13;;;4.73;;
6269;SDS011;3168;51.684;6.954;2022-09-30T06:58:36;5.00;;;4.60;;
6269;SDS011;3168;51.684;6.954;2022-09-30T07:01:03;5.30;;;4.80;;
6269;SDS011;3168;51.684;6.954;2022-09-30T07:03:30;5.57;;;5.10;;
6269;SDS011;3168;51.684;6.954;2022-09-30T07:05:55;5.03;;;4.60;;
6269;SDS011;3168;51.684;6.954;2022-09-30T07:08:20;5.73;;;4.07;;
6269;SDS011;3168;51.684;6.954;2022-09-30T07:10:46;4.40;;;4.07;;
6269;SDS011;3168;51.684;6.954;2022-09-30T07:13:11;5.13;;;4.83;;
6269;SDS011;3168;51.684;6.954;2022-09-30T07:15:37;4.27;;;3.97;;
6269;SDS011;3168;51.684;6.954;2022-09-30T07:18:03;6.40;;;5.90;;
6269;SDS011;3168;51.684;6.954;2022-09-30T07:20:29;5.43;;;5.03;;
6269;SDS011;3168;51.684;6.954;2022-09-30T07:22:55;7.07;;;6.00;;
6269;SDS011;3168;51.684;6.954;2022-09-30T07:25:21;6.40;;;5.80;;
6269;SDS011;3168;51.684;6.954;2022-09-30T07:27:46;5.87;;;5.47;;
6269;SDS011;3168;51.684;6.954;2022-09-30T07:30:12;4.90;;;4.47;;
6269;SDS011;3168;51.684;6.954;2022-09-30T07:32:38;10.67;;;5.93;;
6269;SDS011;3168;51.684;6.954;2022-09-30T07:35:04;8.57;;;5.63;;
6269;SDS011;3168;51.684;6.954;2022-09-30T07:37:30;7.03;;;6.40;;
6269;SDS011;3168;51.684;6.954;2022-09-30T07:39:56;5.60;;;5.10;;
6269;SDS011;3168;51.684;6.954;2022-09-30T07:42:22;6.33;;;5.87;;
6269;SDS011;3168;51.684;6.954;2022-09-30T07:44:48;7.97;;;5.37;;
6269;SDS011;3168;51.684;6.954;2022-09-30T07:47:14;8.93;;;5.60;;
6269;SDS011;3168;51.684;6.954;2022-09-30T07:49:40;10.67;;;7.10;;
6269;SDS011;3168;51.684;6.954;2022-09-30T07:52:06;6.00;;;5.57;;
6269;SDS011;3168;51.684;6.954;2022-09-30T07:54:32;8.33;;;6.57;;
6269;SDS011;3168;51.684;6.954;2022-09-30T07:56:57;7.17;;;6.23;;
6269;SDS011;3168;51.684;6.954;2022-09-30T07:59:23;10.30;;;8.73;;
6269;SDS011;3168;51.684;6.954;2022-09-30T08:01:49;8.00;;;6.53;;
6269;SDS011;3168;51.684;6.954;2022-09-30T08:04:16;8.70;;;7.83;;
6269;SDS011;3168;51.684;6.954;2022-09-30T08:06:42;13.47;;;9.20;;
6269;SDS011;3168;51.684;6.954;2022-09-30T08:09:07;8.40;;;7.37;;
6269;SDS011;3168;51.684;6.954;2022-09-30T08:11:33;8.90;;;8.00;;
6269;SDS011;3168;51.684;6.954;2022-09-30T08:13:59;9.27;;;7.87;;
6269;SDS011;3168;51.684;6.954;2022-09-30T08:16:25;9.30;;;8.40;;
6269;SDS011;3168;51.684;6.954;2022-09-30T08:18:53;25.43;;;10.13;;
6269;SDS011;3168;51.684;6.954;2022-09-30T08:21:19;10.17;;;8.00;;
6269;SDS011;3168;51.684;6.954;2022-09-30T08:23:44;13.33;;;8.83;;
6269;SDS011;3168;51.684;6.954;2022-09-30T08:26:11;22.90;;;9.23;;
6269;SDS011;3168;51.684;6.954;2022-09-30T08:28:37;15.23;;;10.53;;
6269;SDS011;3168;51.684;6.954;2022-09-30T08:31:06;15.87;;;8.30;;
6269;SDS011;3168;51.684;6.954;2022-09-30T08:33:32;11.13;;;9.90;;
6269;SDS011;3168;51.684;6.954;2022-09-30T08:36:01;10.50;;;9.33;;
6269;SDS011;3168;51.684;6.954;2022-09-30T08:38:26;6.78;;;6.40;;
6269;SDS011;3168;51.684;6.954;2022-09-30T08:41:10;12.50;;;9.50;;
6269;SDS011;3168;51.684;6.954;2022-09-30T08:43:53;8.20;;;7.37;;
6269;SDS011;3168;51.684;6.954;2022-09-30T08:46:43;20.43;;;10.90;;
6269;SDS011;3168;51.684;6.954;2022-09-30T08:49:18;14.43;;;8.60;;
6269;SDS011;3168;51.684;6.954;2022-09-30T08:51:53;13.83;;;9.47;;
6269;SDS011;3168;51.684;6.954;2022-09-30T08:54:20;15.50;;;9.00;;
6269;SDS011;3168;51.684;6.954;2022-09-30T08:56:45;11.40;;;8.07;;
6269;SDS011;3168;51.684;6.954;2022-09-30T08:59:26;15.53;;;10.17;;
6269;SDS011;3168;51.684;6.954;2022-09-30T09:02:03;13.93;;;10.23;;
6269;SDS011;3168;51.684;6.954;2022-09-30T09:04:41;11.27;;;9.73;;
6269;SDS011;3168;51.684;6.954;2022-09-30T09:09:50;9.87;;;8.43;;
6269;SDS011;3168;51.684;6.954;2022-09-30T09:12:26;16.07;;;11.10;;
6269;SDS011;3168;51.684;6.954;2022-09-30T09:15:14;13.80;;;9.40;;
6269;SDS011;3168;51.684;6.954;2022-09-30T09:17:58;8.90;;;8.00;;
6269;SDS011;3168;51.684;6.954;2022-09-30T09:20:30;8.90;;;8.00;;
6269;SDS011;3168;51.684;6.954;2022-09-30T09:22:53;9.73;;;8.70;;
6269;SDS011;3168;51.684;6.954;2022-09-30T09:25:22;11.60;;;8.93;;
6269;SDS011;3168;51.684;6.954;2022-09-30T09:27:52;7.77;;;6.87;;
6269;SDS011;3168;51.684;6.954;2022-09-30T09:30:18;11.70;;;8.80;;
6269;SDS011;3168;51.684;6.954;2022-09-30T09:32:42;8.70;;;7.30;;
6269;SDS011;3168;51.684;6.954;2022-09-30T09:35:14;11.00;;;8.57;;
6269;SDS011;3168;51.684;6.954;2022-09-30T09:37:45;8.03;;;7.23;;
6269;SDS011;3168;51.684;6.954;2022-09-30T09:40:17;10.70;;;8.33;;
6269;SDS011;3168;51.684;6.954;2022-09-30T09:42:51;8.20;;;7.00;;
6269;SDS011;3168;51.684;6.954;2022-09-30T09:45:33;8.30;;;7.27;;
6269;SDS011;3168;51.684;6.954;2022-09-30T09:47:59;11.27;;;8.33;;
6269;SDS011;3168;51.684;6.954;2022-09-30T09:50:45;10.53;;;8.10;;
6269;SDS011;3168;51.684;6.954;2022-09-30T09:53:12;9.37;;;8.27;;
6269;SDS011;3168;51.684;6.954;2022-09-30T09:55:34;13.60;;;9.10;;
6269;SDS011;3168;51.684;6.954;2022-09-30T09:58:04;12.33;;;7.70;;
6269;SDS011;3168;51.684;6.954;2022-09-30T10:00:29;9.20;;;8.30;;
6269;SDS011;3168;51.684;6.954;2022-09-30T10:03:04;8.80;;;7.93;;
6269;SDS011;3168;51.684;6.954;2022-09-30T10:05:30;19.67;;;7.70;;
6269;SDS011;3168;51.684;6.954;2022-09-30T10:10:27;10.10;;;7.90;;
6269;SDS011;3168;51.684;6.954;2022-09-30T10:12:53;9.53;;;7.63;;
6269;SDS011;3168;51.684;6.954;2022-09-30T10:15:20;14.67;;;8.67;;
6269;SDS011;3168;51.684;6.954;2022-09-30T10:17:50;11.30;;;8.77;;
6269;SDS011;3168;51.684;6.954;2022-09-30T10:20:17;10.60;;;8.57;;
6269;SDS011;3168;51.684;6.954;2022-09-30T10:22:43;11.37;;;8.43;;
6269;SDS011;3168;51.684;6.954;2022-09-30T10:25:17;8.83;;;8.03;;
6269;SDS011;3168;51.684;6.954;2022-09-30T10:27:49;7.17;;;6.53;;
6269;SDS011;3168;51.684;6.954;2022-09-30T10:32:54;9.37;;;8.17;;
6269;SDS011;3168;51.684;6.954;2022-09-30T10:35:21;9.20;;;8.27;;
6269;SDS011;3168;51.684;6.954;2022-09-30T10:37:51;13.50;;;9.80;;
6269;SDS011;3168;51.684;6.954;2022-09-30T10:40:17;11.43;;;7.57;;
6269;SDS011;3168;51.684;6.954;2022-09-30T10:42:44;12.83;;;10.33;;
6269;SDS011;3168;51.684;6.954;2022-09-30T10:45:41;9.67;;;8.20;;
6269;SDS011;3168;51.684;6.954;2022-09-30T10:47:51;10.37;;;8.60;;
6269;SDS011;3168;51.684;6.954;2022-09-30T10:50:18;11.53;;;8.57;;
6269;SDS011;3168;51.684;6.954;2022-09-30T10:52:49;10.30;;;8.80;;
6269;SDS011;3168;51.684;6.954;2022-09-30T10:55:30;10.47;;;8.90;;
6269;SDS011;3168;51.684;6.954;2022-09-30T10:57:57;9.63;;;8.57;;
6269;SDS011;3168;51.684;6.954;2022-09-30T11:00:22;10.47;;;7.23;;
6269;SDS011;3168;51.684;6.954;2022-09-30T11:03:06;9.77;;;7.03;;
6269;SDS011;3168;51.684;6.954;2022-09-30T11:05:34;16.07;;;7.57;;
6269;SDS011;3168;51.684;6.954;2022-09-30T11:08:04;12.00;;;8.13;;
6269;SDS011;3168;51.684;6.954;2022-09-30T11:10:30;10.40;;;8.50;;
6269;SDS011;3168;51.684;6.954;2022-09-30T11:12:58;11.53;;;8.50;;
6269;SDS011;3168;51.684;6.954;2022-09-30T11:15:27;12.57;;;8.47;;
6269;SDS011;3168;51.684;6.954;2022-09-30T11:17:53;11.20;;;8.97;;
6269;SDS011;3168;51.684;6.954;2022-09-30T11:20:22;8.93;;;8.13;;
6269;SDS011;3168;51.684;6.954;2022-09-30T11:22:51;14.73;;;9.60;;
6269;SDS011;3168;51.684;6.954;2022-09-30T11:25:18;13.47;;;8.70;;
6269;SDS011;3168;51.684;6.954;2022-09-30T11:28:03;15.90;;;9.00;;
6269;SDS011;3168;51.684;6.954;2022-09-30T11:30:32;22.97;;;9.70;;
6269;SDS011;3168;51.684;6.954;2022-09-30T11:36:03;9.30;;;7.40;;
6269;SDS011;3168;51.684;6.954;2022-09-30T11:39:15;11.23;;;9.20;;
6269;SDS011;3168;51.684;6.954;2022-09-30T11:41:18;9.20;;;8.07;;
6269;SDS011;3168;51.684;6.954;2022-09-30T11:44:13;7.47;;;6.77;;
6269;SDS011;3168;51.684;6.954;2022-09-30T11:47:17;20.55;;;7.95;;
6269;SDS011;3168;51.684;6.954;2022-09-30T11:52:22;12.00;;;7.90;;
6269;SDS011;3168;51.684;6.954;2022-09-30T11:54:58;14.10;;;9.90;;
6269;SDS011;3168;51.684;6.954;2022-09-30T11:57:34;15.53;;;9.03;;
6269;SDS011;3168;51.684;6.954;2022-09-30T12:00:00;12.43;;;8.20;;
6269;SDS011;3168;51.684;6.954;2022-09-30T12:05:02;8.90;;;8.00;;
6269;SDS011;3168;51.684;6.954;2022-09-30T12:07:34;10.33;;;6.83;;
6269;SDS011;3168;51.684;6.954;2022-09-30T12:10:00;10.73;;;7.17;;
6269;SDS011;3168;51.684;6.954;2022-09-30T12:12:24;10.53;;;7.03;;
6269;SDS011;3168;51.684;6.954;2022-09-30T12:14:50;9.37;;;7.67;;
6269;SDS011;3168;51.684;6.954;2022-09-30T12:20:02;8.77;;;6.73;;
6269;SDS011;3168;51.684;6.954;2022-09-30T12:22:26;9.97;;;7.60;;
6269;SDS011;3168;51.684;6.954;2022-09-30T12:24:51;7.73;;;6.73;;
6269;SDS011;3168;51.684;6.954;2022-09-30T12:27:22;6.13;;;5.53;;
6269;SDS011;3168;51.684;6.954;2022-09-30T12:29:49;9.47;;;6.87;;
6269;SDS011;3168;51.684;6.954;2022-09-30T12:32:41;7.53;;;5.80;;
6269;SDS011;3168;51.684;6.954;2022-09-30T12:37:45;7.67;;;6.03;;
6269;SDS011;3168;51.684;6.954;2022-09-30T12:40:15;5.83;;;5.20;;
6269;SDS011;3168;51.684;6.954;2022-09-30T12:48:43;4.90;;;4.53;;
6269;SDS011;3168;51.684;6.954;2022-09-30T12:51:08;5.47;;;4.93;;
6269;SDS011;3168;51.684;6.954;2022-09-30T12:53:36;6.90;;;4.97;;
6269;SDS011;3168;51.684;6.954;2022-09-30T12:56:07;6.83;;;6.13;;
6269;SDS011;3168;51.684;6.954;2022-09-30T12:58:33;4.37;;;4.00;;
6269;SDS011;3168;51.684;6.954;2022-09-30T13:01:00;6.30;;;5.70;;
6269;SDS011;3168;51.684;6.954;2022-09-30T13:03:25;4.00;;;3.70;;
6269;SDS011;3168;51.684;6.954;2022-09-30T13:05:51;4.80;;;4.40;;
6269;SDS011;3168;51.684;6.954;2022-09-30T13:08:32;5.10;;;4.73;;
6269;SDS011;3168;51.684;6.954;2022-09-30T13:10:58;15.43;;;6.27;;
6269;SDS011;3168;51.684;6.954;2022-09-30T13:13:25;13.40;;;5.80;;
6269;SDS011;3168;51.684;6.954;2022-09-30T13:15:51;4.23;;;3.93;;
6269;SDS011;3168;51.684;6.954;2022-09-30T13:21:18;10.20;;;5.40;;
6269;SDS011;3168;51.684;6.954;2022-09-30T13:23:46;5.90;;;5.40;;
6269;SDS011;3168;51.684;6.954;2022-09-30T13:32:01;7.80;;;4.30;;
6269;SDS011;3168;51.684;6.954;2022-09-30T13:34:27;3.50;;;3.30;;
6269;SDS011;3168;51.684;6.954;2022-09-30T13:37:00;3.47;;;3.30;;
6269;SDS011;3168;51.684;6.954;2022-09-30T13:42:13;4.27;;;3.87;;
6269;SDS011;3168;51.684;6.954;2022-09-30T13:45:11;4.93;;;3.63;;
6269;SDS011;3168;51.684;6.954;2022-09-30T13:47:38;3.00;;;2.80;;
6269;SDS011;3168;51.684;6.954;2022-09-30T13:50:11;2.87;;;2.67;;
6269;SDS011;3168;51.684;6.954;2022-09-30T13:52:31;3.40;;;3.10;;
6269;SDS011;3168;51.684;6.954;2022-09-30T13:54:57;2.63;;;2.53;;
6269;SDS011;3168;51.684;6.954;2022-09-30T13:57:26;5.47;;;4.20;;
6269;SDS011;3168;51.684;6.954;2022-09-30T14:05:06;20.67;;;10.40;;
6269;SDS011;3168;51.684;6.954;2022-09-30T14:07:43;30.70;;;13.97;;
6269;SDS011;3168;51.684;6.954;2022-09-30T14:10:25;7.47;;;3.63;;
6269;SDS011;3168;51.684;6.954;2022-09-30T14:18:26;5.47;;;4.90;;
6269;SDS011;3168;51.684;6.954;2022-09-30T14:21:16;2.40;;;2.20;;
6269;SDS011;3168;51.684;6.954;2022-09-30T14:23:58;6.00;;;3.00;;
6269;SDS011;3168;51.684;6.954;2022-09-30T14:27:09;4.90;;;4.40;;
6269;SDS011;3168;51.684;6.954;2022-09-30T14:29:21;13.03;;;9.27;;
6269;SDS011;3168;51.684;6.954;2022-09-30T14:31:59;2.40;;;2.30;;
6269;SDS011;3168;51.684;6.954;2022-09-30T14:34:25;3.20;;;3.10;;
6269;SDS011;3168;51.684;6.954;2022-09-30T14:36:51;2.90;;;2.80;;
6269;SDS011;3168;51.684;6.954;2022-09-30T14:39:19;3.57;;;3.47;;
6269;SDS011;3168;51.684;6.954;2022-09-30T14:41:49;2.63;;;2.43;;
6269;SDS011;3168;51.684;6.954;2022-09-30T14:44:14;2.53;;;2.43;;
6269;SDS011;3168;51.684;6.954;2022-09-30T14:46:41;3.30;;;3.00;;
6269;SDS011;3168;51.684;6.954;2022-09-30T14:49:07;1.83;;;1.73;;
6269;SDS011;3168;51.684;6.954;2022-09-30T14:51:40;2.30;;;2.20;;
6269;SDS011;3168;51.684;6.954;2022-09-30T14:54:14;2.67;;;2.50;;
6269;SDS011;3168;51.684;6.954;2022-09-30T14:56:34;9.80;;;3.07;;
6269;SDS011;3168;51.684;6.954;2022-09-30T14:58:58;3.00;;;2.80;;
6269;SDS011;3168;51.684;6.954;2022-09-30T15:01:27;2.60;;;2.50;;
6269;SDS011;3168;51.684;6.954;2022-09-30T15:03:53;2.30;;;2.20;;
6269;SDS011;3168;51.684;6.954;2022-09-30T15:06:18;8.63;;;3.67;;
6269;SDS011;3168;51.684;6.954;2022-09-30T15:08:44;2.97;;;2.87;;
6269;SDS011;3168;51.684;6.954;2022-09-30T15:11:16;2.57;;;1.70;;
6269;SDS011;3168;51.684;6.954;2022-09-30T15:13:36;2.83;;;2.67;;
6269;SDS011;3168;51.684;6.954;2022-09-30T15:16:02;4.60;;;1.90;;
6269;SDS011;3168;51.684;6.954;2022-09-30T15:18:29;2.90;;;2.80;;
6269;SDS011;3168;51.684;6.954;2022-09-30T15:20:55;2.40;;;2.30;;
6269;SDS011;3168;51.684;6.954;2022-09-30T15:23:23;2.37;;;2.27;;
6269;SDS011;3168;51.684;6.954;2022-09-30T15:25:48;2.60;;;2.50;;
6269;SDS011;3168;51.684;6.954;2022-09-30T15:28:14;3.13;;;2.47;;
6269;SDS011;3168;51.684;6.954;2022-09-30T15:30:40;13.30;;;7.97;;
6269;SDS011;3168;51.684;6.954;2022-09-30T15:33:11;2.90;;;2.80;;
6269;SDS011;3168;51.684;6.954;2022-09-30T15:35:32;3.73;;;3.40;;
6269;SDS011;3168;51.684;6.954;2022-09-30T15:38:05;2.67;;;2.57;;
6269;SDS011;3168;51.684;6.954;2022-09-30T15:40:30;2.97;;;2.87;;
6269;SDS011;3168;51.684;6.954;2022-09-30T15:43:03;2.90;;;2.80;;
6269;SDS011;3168;51.684;6.954;2022-09-30T15:45:29;3.07;;;2.80;;
6269;SDS011;3168;51.684;6.954;2022-09-30T15:47:54;2.63;;;2.47;;
6269;SDS011;3168;51.684;6.954;2022-09-30T15:53:02;3.13;;;2.73;;
6269;SDS011;3168;51.684;6.954;2022-09-30T15:55:34;3.53;;;2.13;;
6269;SDS011;3168;51.684;6.954;2022-09-30T15:58:10;3.05;;;2.95;;
6269;SDS011;3168;51.684;6.954;2022-09-30T16:00:32;2.77;;;2.67;;
6269;SDS011;3168;51.684;6.954;2022-09-30T16:03:06;3.20;;;3.00;;
6269;SDS011;3168;51.684;6.954;2022-09-30T16:05:31;2.77;;;2.60;;
6269;SDS011;3168;51.684;6.954;2022-09-30T16:07:57;3.83;;;3.60;;
6269;SDS011;3168;51.684;6.954;2022-09-30T16:10:23;2.87;;;2.77;;
6269;SDS011;3168;51.684;6.954;2022-09-30T16:12:49;4.07;;;3.67;;
6269;SDS011;3168;51.684;6.954;2022-09-30T16:15:15;2.83;;;2.73;;
6269;SDS011;3168;51.684;6.954;2022-09-30T16:17:44;5.37;;;2.90;;
6269;SDS011;3168;51.684;6.954;2022-09-30T16:20:20;2.47;;;2.37;;
6269;SDS011;3168;51.684;6.954;2022-09-30T16:22:49;2.33;;;2.23;;
6269;SDS011;3168;51.684;6.954;2022-09-30T16:25:29;2.90;;;2.50;;
6269;SDS011;3168;51.684;6.954;2022-09-30T16:27:55;2.53;;;2.30;;
6269;SDS011;3168;51.684;6.954;2022-09-30T16:30:20;1.97;;;1.97;;